sensor_id;sensor_type;location;lat;lon;timestamp;pressure;altitude;pressure_sealevel;temperature;humidity
59531;BME280;45349;48.692;8.186;2023-04-09T00:00:02;99302.59;;;6.77;86.64
59531;BME280;45349;48.692;8.186;2023-04-09T00:02:37;99295.75;;;6.76;87.12
59531;BME280;45349;48.692;8.186;2023-04-09T00:05:06;99297.63;;;6.74;87.52
59531;BME280;45349;48.692;8.186;2023-04-09T00:07:33;99290.19;;;6.69;87.50
59531;BME280;45349;48.692;8.186;2023-04-09T00:10:00;99289.56;;;6.65;87.12
59531;BME280;45349;48.692;8.186;2023-04-09T00:12:26;99292.28;;;6.64;87.72
59531;BME280;45349;48.692;8.186;2023-04-09T00:14:56;99287.19;;;6.62;86.99
59531;BME280;45349;48.692;8.186;2023-04-09T00:17:22;99286.16;;;6.65;87.17
59531;BME280;45349;48.692;8.186;2023-04-09T00:19:49;99283.56;;;6.65;87.42
59531;BME280;45349;48.692;8.186;2023-04-09T00:22:16;99283.56;;;6.65;87.17
59531;BME280;45349;48.692;8.186;2023-04-09T00:24:42;99286.38;;;6.62;86.66
59531;BME280;45349;48.692;8.186;2023-04-09T00:27:09;99287.31;;;6.61;86.94
59531;BME280;45349;48.692;8.186;2023-04-09T00:29:35;99287.31;;;6.61;86.77
59531;BME280;45349;48.692;8.186;2023-04-09T00:32:04;99289.06;;;6.60;86.92
59531;BME280;45349;48.692;8.186;2023-04-09T00:34:30;99288.34;;;6.58;87.27
59531;BME280;45349;48.692;8.186;2023-04-09T00:36:57;99283.88;;;6.60;88.00
59531;BME280;45349;48.692;8.186;2023-04-09T00:39:24;99283.88;;;6.60;87.53
59531;BME280;45349;48.692;8.186;2023-04-09T00:41:55;99284.66;;;6.49;88.19
59531;BME280;45349;48.692;8.186;2023-04-09T00:44:22;99278.97;;;6.44;87.49
59531;BME280;45349;48.692;8.186;2023-04-09T00:46:49;99286.09;;;6.41;87.36
59531;BME280;45349;48.692;8.186;2023-04-09T00:49:17;99284.28;;;6.30;86.43
59531;BME280;45349;48.692;8.186;2023-04-09T00:51:45;99288.88;;;6.26;86.94
59531;BME280;45349;48.692;8.186;2023-04-09T00:54:11;99281.00;;;6.15;87.20
59531;BME280;45349;48.692;8.186;2023-04-09T00:56:39;99287.22;;;6.12;89.93
59531;BME280;45349;48.692;8.186;2023-04-09T00:59:06;99281.63;;;6.05;89.28
59531;BME280;45349;48.692;8.186;2023-04-09T01:01:33;99291.75;;;5.96;89.32
59531;BME280;45349;48.692;8.186;2023-04-09T01:03:59;99286.97;;;5.89;88.92
59531;BME280;45349;48.692;8.186;2023-04-09T01:06:32;99294.25;;;5.84;88.10
59531;BME280;45349;48.692;8.186;2023-04-09T01:09:07;99287.00;;;5.76;87.95
59531;BME280;45349;48.692;8.186;2023-04-09T01:11:38;99283.28;;;5.68;88.56
59531;BME280;45349;48.692;8.186;2023-04-09T01:14:13;99281.91;;;5.62;88.19
59531;BME280;45349;48.692;8.186;2023-04-09T01:16:50;99283.25;;;5.55;89.19
59531;BME280;45349;48.692;8.186;2023-04-09T01:19:32;99291.75;;;5.44;89.07
59531;BME280;45349;48.692;8.186;2023-04-09T01:22:02;99280.13;;;5.37;90.03
59531;BME280;45349;48.692;8.186;2023-04-09T01:24:39;99281.47;;;5.29;90.17
59531;BME280;45349;48.692;8.186;2023-04-09T01:27:14;99287.78;;;5.25;92.86
59531;BME280;45349;48.692;8.186;2023-04-09T01:29:52;99282.38;;;5.15;92.23
59531;BME280;45349;48.692;8.186;2023-04-09T01:32:21;99281.22;;;5.07;92.11
59531;BME280;45349;48.692;8.186;2023-04-09T01:34:48;99277.47;;;4.98;91.60
59531;BME280;45349;48.692;8.186;2023-04-09T01:37:17;99276.94;;;4.93;92.54
59531;BME280;45349;48.692;8.186;2023-04-09T01:39:44;99274.53;;;4.90;92.64
59531;BME280;45349;48.692;8.186;2023-04-09T01:42:14;99274.09;;;4.83;92.69
59531;BME280;45349;48.692;8.186;2023-04-09T01:44:41;99283.19;;;4.76;94.46
59531;BME280;45349;48.692;8.186;2023-04-09T01:47:11;99277.91;;;4.77;94.57
59531;BME280;45349;48.692;8.186;2023-04-09T01:49:40;99277.03;;;4.64;93.79
59531;BME280;45349;48.692;8.186;2023-04-09T01:52:07;99279.41;;;4.67;94.92
59531;BME280;45349;48.692;8.186;2023-04-09T01:54:35;99280.84;;;4.58;95.01
59531;BME280;45349;48.692;8.186;2023-04-09T01:57:01;99288.97;;;4.52;94.35
59531;BME280;45349;48.692;8.186;2023-04-09T01:59:28;99287.03;;;4.41;94.16
59531;BME280;45349;48.692;8.186;2023-04-09T02:01:58;99289.81;;;4.38;94.50
59531;BME280;45349;48.692;8.186;2023-04-09T02:04:32;99288.88;;;4.39;94.71
59531;BME280;45349;48.692;8.186;2023-04-09T02:07:04;99289.38;;;4.31;94.19
59531;BME280;45349;48.692;8.186;2023-04-09T02:09:35;99286.31;;;4.24;94.58
59531;BME280;45349;48.692;8.186;2023-04-09T02:12:05;99283.97;;;4.21;96.18
59531;BME280;45349;48.692;8.186;2023-04-09T02:14:32;99289.69;;;4.12;95.70
59531;BME280;45349;48.692;8.186;2023-04-09T02:17:00;99288.03;;;4.11;96.08
59531;BME280;45349;48.692;8.186;2023-04-09T02:19:38;99280.34;;;4.09;96.21
59531;BME280;45349;48.692;8.186;2023-04-09T02:22:05;99280.53;;;4.06;96.77
59531;BME280;45349;48.692;8.186;2023-04-09T02:24:31;99282.66;;;3.99;96.34
59531;BME280;45349;48.692;8.186;2023-04-09T02:26:58;99281.28;;;3.94;96.95
59531;BME280;45349;48.692;8.186;2023-04-09T02:29:26;99284.22;;;3.88;97.22
59531;BME280;45349;48.692;8.186;2023-04-09T02:31:53;99275.84;;;3.84;96.48
59531;BME280;45349;48.692;8.186;2023-04-09T02:34:46;99282.28;;;3.77;96.63
59531;BME280;45349;48.692;8.186;2023-04-09T02:37:12;99280.53;;;3.77;97.11
59531;BME280;45349;48.692;8.186;2023-04-09T02:39:39;99273.59;;;3.63;96.85
59531;BME280;45349;48.692;8.186;2023-04-09T02:42:06;99280.78;;;3.58;98.01
59531;BME280;45349;48.692;8.186;2023-04-09T02:44:38;99280.97;;;3.55;97.49
59531;BME280;45349;48.692;8.186;2023-04-09T02:47:06;99273.31;;;3.53;98.35
59531;BME280;45349;48.692;8.186;2023-04-09T02:49:41;99276.34;;;3.46;98.73
59531;BME280;45349;48.692;8.186;2023-04-09T02:52:12;99288.84;;;3.37;99.17
59531;BME280;45349;48.692;8.186;2023-04-09T02:54:49;99273.38;;;3.37;99.67
59531;BME280;45349;48.692;8.186;2023-04-09T02:57:16;99275.94;;;3.37;100.00
59531;BME280;45349;48.692;8.186;2023-04-09T02:59:43;99274.13;;;3.39;100.00
59531;BME280;45349;48.692;8.186;2023-04-09T03:02:10;99274.28;;;3.36;99.99
59531;BME280;45349;48.692;8.186;2023-04-09T03:04:37;99267.63;;;3.32;99.76
59531;BME280;45349;48.692;8.186;2023-04-09T03:07:04;99266.09;;;3.30;100.00
59531;BME280;45349;48.692;8.186;2023-04-09T03:09:32;99261.50;;;3.35;100.00
59531;BME280;45349;48.692;8.186;2023-04-09T03:11:58;99258.34;;;3.30;100.00
59531;BME280;45349;48.692;8.186;2023-04-09T03:14:26;99267.00;;;3.29;100.00
59531;BME280;45349;48.692;8.186;2023-04-09T03:16:53;99256.56;;;3.30;100.00
59531;BME280;45349;48.692;8.186;2023-04-09T03:19:19;99263.00;;;3.23;100.00
59531;BME280;45349;48.692;8.186;2023-04-09T03:21:46;99256.63;;;3.14;100.00
59531;BME280;45349;48.692;8.186;2023-04-09T03:24:17;99262.06;;;3.09;100.00
59531;BME280;45349;48.692;8.186;2023-04-09T03:26:45;99261.34;;;3.07;100.00
59531;BME280;45349;48.692;8.186;2023-04-09T03:29:13;99261.75;;;3.00;100.00
59531;BME280;45349;48.692;8.186;2023-04-09T03:31:40;99260.25;;;2.95;100.00
59531;BME280;45349;48.692;8.186;2023-04-09T03:34:07;99263.59;;;2.98;100.00
59531;BME280;45349;48.692;8.186;2023-04-09T03:36:33;99257.78;;;2.94;100.00
59531;BME280;45349;48.692;8.186;2023-04-09T03:39:09;99267.75;;;2.84;100.00
59531;BME280;45349;48.692;8.186;2023-04-09T03:41:40;99261.38;;;2.75;100.00
59531;BME280;45349;48.692;8.186;2023-04-09T03:44:12;99266.63;;;2.74;100.00
59531;BME280;45349;48.692;8.186;2023-04-09T03:46:56;99265.38;;;2.65;100.00
59531;BME280;45349;48.692;8.186;2023-04-09T03:49:24;99265.47;;;2.63;100.00
59531;BME280;45349;48.692;8.186;2023-04-09T03:51:54;99264.47;;;2.66;100.00
59531;BME280;45349;48.692;8.186;2023-04-09T03:54:22;99267.78;;;2.68;100.00
59531;BME280;45349;48.692;8.186;2023-04-09T03:56:49;99267.97;;;2.65;100.00
59531;BME280;45349;48.692;8.186;2023-04-09T03:59:22;99262.41;;;2.57;100.00
59531;BME280;45349;48.692;8.186;2023-04-09T04:01:49;99261.47;;;2.58;100.00
59531;BME280;45349;48.692;8.186;2023-04-09T04:04:16;99260.41;;;2.62;100.00
59531;BME280;45349;48.692;8.186;2023-04-09T04:06:48;99265.66;;;2.60;100.00
59531;BME280;45349;48.692;8.186;2023-04-09T04:09:23;99263.56;;;2.67;100.00
59531;BME280;45349;48.692;8.186;2023-04-09T04:12:01;99259.31;;;2.66;100.00
59531;BME280;45349;48.692;8.186;2023-04-09T04:14:43;99265.72;;;2.59;100.00
59531;BME280;45349;48.692;8.186;2023-04-09T04:17:20;99264.75;;;2.61;100.00
59531;BME280;45349;48.692;8.186;2023-04-09T04:19:48;99271.72;;;2.59;100.00
59531;BME280;45349;48.692;8.186;2023-04-09T04:22:14;99264.22;;;2.55;100.00
59531;BME280;45349;48.692;8.186;2023-04-09T04:24:44;99269.78;;;2.63;100.00
59531;BME280;45349;48.692;8.186;2023-04-09T04:27:16;99264.56;;;2.64;100.00
59531;BME280;45349;48.692;8.186;2023-04-09T04:29:45;99266.19;;;2.65;100.00
59531;BME280;45349;48.692;8.186;2023-04-09T04:32:26;99267.38;;;2.60;100.00
59531;BME280;45349;48.692;8.186;2023-04-09T04:34:54;99274.53;;;2.55;100.00
59531;BME280;45349;48.692;8.186;2023-04-09T04:37:24;99269.22;;;2.58;100.00
59531;BME280;45349;48.692;8.186;2023-04-09T04:39:55;99270.22;;;2.55;100.00
59531;BME280;45349;48.692;8.186;2023-04-09T04:42:22;99269.72;;;2.48;100.00
59531;BME280;45349;48.692;8.186;2023-04-09T04:44:50;99266.97;;;2.51;100.00
59531;BME280;45349;48.692;8.186;2023-04-09T04:47:36;99270.97;;;2.41;100.00
59531;BME280;45349;48.692;8.186;2023-04-09T04:50:04;99267.03;;;2.34;100.00
59531;BME280;45349;48.692;8.186;2023-04-09T04:52:39;99275.28;;;2.41;100.00
59531;BME280;45349;48.692;8.186;2023-04-09T04:55:08;99272.94;;;2.36;100.00
59531;BME280;45349;48.692;8.186;2023-04-09T04:57:35;99272.13;;;2.35;100.00
59531;BME280;45349;48.692;8.186;2023-04-09T05:00:04;99273.97;;;2.33;100.00
59531;BME280;45349;48.692;8.186;2023-04-09T05:02:31;99272.94;;;2.36;100.00
59531;BME280;45349;48.692;8.186;2023-04-09T05:05:16;99278.34;;;2.47;100.00
59531;BME280;45349;48.692;8.186;2023-04-09T05:07:48;99283.94;;;2.56;100.00
59531;BME280;45349;48.692;8.186;2023-04-09T05:10:15;99280.53;;;2.55;100.00
59531;BME280;45349;48.692;8.186;2023-04-09T05:12:43;99286.34;;;2.59;100.00
59531;BME280;45349;48.692;8.186;2023-04-09T05:15:17;99283.13;;;2.55;100.00
59531;BME280;45349;48.692;8.186;2023-04-09T05:17:44;99285.94;;;2.50;100.00
59531;BME280;45349;48.692;8.186;2023-04-09T05:20:13;99292.94;;;2.64;100.00
59531;BME280;45349;48.692;8.186;2023-04-09T05:23:02;99290.50;;;2.61;100.00
59531;BME280;45349;48.692;8.186;2023-04-09T05:25:34;99296.91;;;2.70;100.00
59531;BME280;45349;48.692;8.186;2023-04-09T05:28:02;99300.88;;;2.76;100.00
59531;BME280;45349;48.692;8.186;2023-04-09T05:30:32;99294.81;;;2.77;100.00
59531;BME280;45349;48.692;8.186;2023-04-09T05:33:02;99303.03;;;2.84;100.00
59531;BME280;45349;48.692;8.186;2023-04-09T05:35:29;99303.22;;;2.80;100.00
59531;BME280;45349;48.692;8.186;2023-04-09T05:37:56;99297.78;;;2.85;100.00
59531;BME280;45349;48.692;8.186;2023-04-09T05:40:23;99297.88;;;2.84;100.00
59531;BME280;45349;48.692;8.186;2023-04-09T05:42:51;99304.38;;;2.91;100.00
59531;BME280;45349;48.692;8.186;2023-04-09T05:45:32;99291.47;;;2.91;100.00
59531;BME280;45349;48.692;8.186;2023-04-09T05:47:59;99296.03;;;3.02;100.00
59531;BME280;45349;48.692;8.186;2023-04-09T05:50:26;99299.09;;;3.08;100.00
59531;BME280;45349;48.692;8.186;2023-04-09T05:52:54;99296.53;;;3.08;100.00
59531;BME280;45349;48.692;8.186;2023-04-09T05:55:27;99295.84;;;3.05;100.00
59531;BME280;45349;48.692;8.186;2023-04-09T05:57:57;99295.03;;;3.04;100.00
59531;BME280;45349;48.692;8.186;2023-04-09T06:00:24;99292.47;;;3.19;100.00
59531;BME280;45349;48.692;8.186;2023-04-09T06:02:52;99291.50;;;3.21;100.00
59531;BME280;45349;48.692;8.186;2023-04-09T06:05:18;99293.31;;;3.19;100.00
59531;BME280;45349;48.692;8.186;2023-04-09T06:07:46;99292.31;;;3.22;100.00
59531;BME280;45349;48.692;8.186;2023-04-09T06:10:13;99296.19;;;3.29;100.00
59531;BME280;45349;48.692;8.186;2023-04-09T06:12:40;99298.38;;;3.37;100.00
59531;BME280;45349;48.692;8.186;2023-04-09T06:15:08;99296.25;;;3.44;100.00
59531;BME280;45349;48.692;8.186;2023-04-09T06:17:35;99295.31;;;3.45;100.00
59531;BME280;45349;48.692;8.186;2023-04-09T06:20:03;99305.41;;;3.49;100.00
59531;BME280;45349;48.692;8.186;2023-04-09T06:22:30;99299.03;;;3.55;100.00
59531;BME280;45349;48.692;8.186;2023-04-09T06:24:57;99300.63;;;3.58;100.00
59531;BME280;45349;48.692;8.186;2023-04-09T06:27:23;99307.72;;;3.68;100.00
59531;BME280;45349;48.692;8.186;2023-04-09T06:29:50;99305.72;;;3.74;100.00
59531;BME280;45349;48.692;8.186;2023-04-09T06:32:17;99302.94;;;3.77;100.00
59531;BME280;45349;48.692;8.186;2023-04-09T06:34:44;99303.59;;;3.80;100.00
59531;BME280;45349;48.692;8.186;2023-04-09T06:37:12;99304.97;;;3.86;100.00
59531;BME280;45349;48.692;8.186;2023-04-09T06:39:39;99301.84;;;3.95;100.00
59531;BME280;45349;48.692;8.186;2023-04-09T06:42:05;99304.25;;;3.98;100.00
59531;BME280;45349;48.692;8.186;2023-04-09T06:44:38;99316.81;;;4.05;100.00
59531;BME280;45349;48.692;8.186;2023-04-09T06:47:05;99313.00;;;4.10;100.00
59531;BME280;45349;48.692;8.186;2023-04-09T06:49:33;99315.03;;;4.20;100.00
59531;BME280;45349;48.692;8.186;2023-04-09T06:52:00;99312.72;;;4.29;100.00
59531;BME280;45349;48.692;8.186;2023-04-09T06:54:28;99314.56;;;4.42;100.00
59531;BME280;45349;48.692;8.186;2023-04-09T06:56:54;99316.38;;;4.54;100.00
59531;BME280;45349;48.692;8.186;2023-04-09T06:59:21;99315.53;;;4.68;100.00
59531;BME280;45349;48.692;8.186;2023-04-09T07:01:48;99319.19;;;4.79;100.00
59531;BME280;45349;48.692;8.186;2023-04-09T07:04:14;99324.31;;;4.93;99.58
59531;BME280;45349;48.692;8.186;2023-04-09T07:06:41;99326.66;;;5.11;99.47
59531;BME280;45349;48.692;8.186;2023-04-09T07:09:07;99336.44;;;5.33;98.68
59531;BME280;45349;48.692;8.186;2023-04-09T07:11:35;99329.25;;;5.51;98.12
59531;BME280;45349;48.692;8.186;2023-04-09T07:14:02;99326.38;;;5.69;97.08
59531;BME280;45349;48.692;8.186;2023-04-09T07:16:29;99326.78;;;5.88;94.02
59531;BME280;45349;48.692;8.186;2023-04-09T07:18:55;99330.97;;;6.04;94.44
59531;BME280;45349;48.692;8.186;2023-04-09T07:21:22;99328.19;;;6.20;93.97
59531;BME280;45349;48.692;8.186;2023-04-09T07:23:48;99333.50;;;6.43;93.82
59531;BME280;45349;48.692;8.186;2023-04-09T07:26:15;99333.00;;;6.50;93.07
59531;BME280;45349;48.692;8.186;2023-04-09T07:28:43;99336.47;;;6.62;92.59
59531;BME280;45349;48.692;8.186;2023-04-09T07:31:10;99337.28;;;6.76;92.06
59531;BME280;45349;48.692;8.186;2023-04-09T07:33:37;99348.56;;;6.88;90.97
59531;BME280;45349;48.692;8.186;2023-04-09T07:36:04;99346.84;;;7.00;90.90
59531;BME280;45349;48.692;8.186;2023-04-09T07:38:31;99349.72;;;7.08;91.28
59531;BME280;45349;48.692;8.186;2023-04-09T07:40:57;99344.81;;;7.16;89.09
59531;BME280;45349;48.692;8.186;2023-04-09T07:43:24;99355.84;;;7.31;89.15
59531;BME280;45349;48.692;8.186;2023-04-09T07:45:52;99356.25;;;7.38;88.51
59531;BME280;45349;48.692;8.186;2023-04-09T07:48:18;99346.94;;;7.47;89.16
59531;BME280;45349;48.692;8.186;2023-04-09T07:50:45;99355.09;;;7.53;87.29
59531;BME280;45349;48.692;8.186;2023-04-09T07:53:12;99360.06;;;7.57;86.94
59531;BME280;45349;48.692;8.186;2023-04-09T07:55:39;99361.66;;;7.71;85.38
59531;BME280;45349;48.692;8.186;2023-04-09T07:58:05;99357.91;;;7.86;85.65
59531;BME280;45349;48.692;8.186;2023-04-09T08:00:32;99356.50;;;8.05;84.27
59531;BME280;45349;48.692;8.186;2023-04-09T08:03:00;99351.53;;;8.24;84.86
59531;BME280;45349;48.692;8.186;2023-04-09T08:05:28;99359.72;;;8.31;84.38
59531;BME280;45349;48.692;8.186;2023-04-09T08:07:55;99346.72;;;8.54;83.98
59531;BME280;45349;48.692;8.186;2023-04-09T08:10:21;99349.06;;;8.68;79.36
59531;BME280;45349;48.692;8.186;2023-04-09T08:12:48;99350.34;;;8.85;79.39
59531;BME280;45349;48.692;8.186;2023-04-09T08:15:15;99358.84;;;8.99;76.93
59531;BME280;45349;48.692;8.186;2023-04-09T08:17:42;99359.03;;;9.07;75.93
59531;BME280;45349;48.692;8.186;2023-04-09T08:20:11;99359.91;;;8.96;78.14
59531;BME280;45349;48.692;8.186;2023-04-09T08:22:37;99357.78;;;8.90;75.95
59531;BME280;45349;48.692;8.186;2023-04-09T08:25:07;99361.78;;;8.94;76.01
59531;BME280;45349;48.692;8.186;2023-04-09T08:27:34;99365.78;;;9.10;74.71
59531;BME280;45349;48.692;8.186;2023-04-09T08:30:01;99365.75;;;9.21;75.66
59531;BME280;45349;48.692;8.186;2023-04-09T08:32:28;99365.75;;;9.21;75.33
59531;BME280;45349;48.692;8.186;2023-04-09T08:34:54;99367.81;;;9.39;74.49
59531;BME280;45349;48.692;8.186;2023-04-09T08:37:23;99367.19;;;9.47;73.77
59531;BME280;45349;48.692;8.186;2023-04-09T08:39:49;99366.13;;;9.49;73.95
59531;BME280;45349;48.692;8.186;2023-04-09T08:42:16;99360.38;;;9.55;73.14
59531;BME280;45349;48.692;8.186;2023-04-09T08:44:45;99370.25;;;9.73;65.33
59531;BME280;45349;48.692;8.186;2023-04-09T08:47:12;99369.41;;;9.94;62.85
59531;BME280;45349;48.692;8.186;2023-04-09T08:49:38;99369.66;;;10.12;68.85
59531;BME280;45349;48.692;8.186;2023-04-09T08:52:06;99365.63;;;10.29;63.01
59531;BME280;45349;48.692;8.186;2023-04-09T08:54:34;99368.63;;;10.45;57.13
59531;BME280;45349;48.692;8.186;2023-04-09T08:57:04;99368.00;;;10.73;53.67
59531;BME280;45349;48.692;8.186;2023-04-09T08:59:30;99371.66;;;11.11;50.56
59531;BME280;45349;48.692;8.186;2023-04-09T09:02:07;99365.34;;;11.33;48.92
59531;BME280;45349;48.692;8.186;2023-04-09T09:04:43;99363.94;;;11.59;49.59
59531;BME280;45349;48.692;8.186;2023-04-09T09:07:11;99368.72;;;11.93;47.53
59531;BME280;45349;48.692;8.186;2023-04-09T09:09:51;99370.50;;;12.02;46.12
59531;BME280;45349;48.692;8.186;2023-04-09T09:12:31;99370.94;;;12.35;46.00
59531;BME280;45349;48.692;8.186;2023-04-09T09:14:58;99361.75;;;12.59;45.41
59531;BME280;45349;48.692;8.186;2023-04-09T09:17:24;99364.38;;;12.77;45.97
59531;BME280;45349;48.692;8.186;2023-04-09T09:19:51;99369.25;;;12.72;45.04
59531;BME280;45349;48.692;8.186;2023-04-09T09:22:18;99365.63;;;13.01;43.35
59531;BME280;45349;48.692;8.186;2023-04-09T09:24:45;99374.25;;;13.11;45.92
59531;BME280;45349;48.692;8.186;2023-04-09T09:27:29;99371.06;;;13.54;44.87
59531;BME280;45349;48.692;8.186;2023-04-09T09:29:56;99375.91;;;13.93;45.33
59531;BME280;45349;48.692;8.186;2023-04-09T09:32:23;99378.09;;;13.98;41.92
59531;BME280;45349;48.692;8.186;2023-04-09T09:34:57;99372.75;;;13.81;39.92
59531;BME280;45349;48.692;8.186;2023-04-09T09:37:25;99377.81;;;12.46;42.13
59531;BME280;45349;48.692;8.186;2023-04-09T09:39:52;99375.28;;;12.54;43.24
59531;BME280;45349;48.692;8.186;2023-04-09T09:42:20;99373.56;;;13.09;41.72
59531;BME280;45349;48.692;8.186;2023-04-09T09:44:48;99376.25;;;13.46;43.14
59531;BME280;45349;48.692;8.186;2023-04-09T09:47:17;99372.53;;;13.56;40.76
59531;BME280;45349;48.692;8.186;2023-04-09T09:49:44;99365.97;;;13.52;40.78
59531;BME280;45349;48.692;8.186;2023-04-09T09:52:10;99358.94;;;13.79;43.44
59531;BME280;45349;48.692;8.186;2023-04-09T09:54:39;99361.72;;;14.04;42.71
59531;BME280;45349;48.692;8.186;2023-04-09T09:57:07;99354.44;;;14.24;44.42
59531;BME280;45349;48.692;8.186;2023-04-09T09:59:40;99357.13;;;13.80;42.63
59531;BME280;45349;48.692;8.186;2023-04-09T10:02:13;99352.16;;;13.68;43.73
59531;BME280;45349;48.692;8.186;2023-04-09T10:04:43;99345.16;;;13.77;45.25
59531;BME280;45349;48.692;8.186;2023-04-09T10:07:12;99350.44;;;14.12;42.35
59531;BME280;45349;48.692;8.186;2023-04-09T10:09:41;99351.50;;;13.93;42.13
59531;BME280;45349;48.692;8.186;2023-04-09T10:12:11;99359.50;;;13.91;42.93
59531;BME280;45349;48.692;8.186;2023-04-09T10:14:40;99337.72;;;14.25;44.67
59531;BME280;45349;48.692;8.186;2023-04-09T10:17:08;99344.22;;;13.42;42.32
59531;BME280;45349;48.692;8.186;2023-04-09T10:19:39;99355.41;;;13.62;40.75
59531;BME280;45349;48.692;8.186;2023-04-09T10:22:09;99349.97;;;13.64;42.18
59531;BME280;45349;48.692;8.186;2023-04-09T10:24:37;99366.03;;;13.61;42.66
59531;BME280;45349;48.692;8.186;2023-04-09T10:27:11;99366.31;;;13.57;42.92
59531;BME280;45349;48.692;8.186;2023-04-09T10:29:43;99358.34;;;13.85;42.66
59531;BME280;45349;48.692;8.186;2023-04-09T10:32:10;99352.22;;;13.40;43.01
59531;BME280;45349;48.692;8.186;2023-04-09T10:34:39;99356.06;;;13.64;42.77
59531;BME280;45349;48.692;8.186;2023-04-09T10:37:07;99366.88;;;14.14;43.07
59531;BME280;45349;48.692;8.186;2023-04-09T10:39:38;99361.16;;;14.19;43.02
59531;BME280;45349;48.692;8.186;2023-04-09T10:42:07;99348.78;;;14.45;42.79
59531;BME280;45349;48.692;8.186;2023-04-09T10:44:38;99356.88;;;13.91;42.65
59531;BME280;45349;48.692;8.186;2023-04-09T10:47:07;99353.28;;;13.29;41.50
59531;BME280;45349;48.692;8.186;2023-04-09T10:49:36;99352.00;;;13.16;42.91
59531;BME280;45349;48.692;8.186;2023-04-09T10:52:04;99347.91;;;13.13;45.11
59531;BME280;45349;48.692;8.186;2023-04-09T10:54:37;99340.25;;;13.20;45.54
59531;BME280;45349;48.692;8.186;2023-04-09T10:57:17;99345.34;;;12.85;44.19
59531;BME280;45349;48.692;8.186;2023-04-09T10:59:46;99349.00;;;13.10;45.58
59531;BME280;45349;48.692;8.186;2023-04-09T11:03:08;99344.72;;;13.27;44.76
59531;BME280;45349;48.692;8.186;2023-04-09T11:05:36;99340.50;;;13.45;41.81
59531;BME280;45349;48.692;8.186;2023-04-09T11:08:08;99343.88;;;13.55;42.19
59531;BME280;45349;48.692;8.186;2023-04-09T11:10:35;99344.88;;;14.15;40.77
59531;BME280;45349;48.692;8.186;2023-04-09T11:13:03;99349.41;;;14.39;42.64
59531;BME280;45349;48.692;8.186;2023-04-09T11:15:31;99340.91;;;14.45;40.38
59531;BME280;45349;48.692;8.186;2023-04-09T11:17:59;99343.91;;;14.59;38.61
59531;BME280;45349;48.692;8.186;2023-04-09T11:20:29;99343.09;;;14.58;39.46
59531;BME280;45349;48.692;8.186;2023-04-09T11:22:58;99346.06;;;14.55;41.74
59531;BME280;45349;48.692;8.186;2023-04-09T11:25:25;99346.69;;;14.49;39.58
59531;BME280;45349;48.692;8.186;2023-04-09T11:27:53;99340.72;;;14.39;39.77
59531;BME280;45349;48.692;8.186;2023-04-09T11:30:20;99337.66;;;14.52;40.32
59531;BME280;45349;48.692;8.186;2023-04-09T11:32:47;99325.16;;;14.45;39.99
59531;BME280;45349;48.692;8.186;2023-04-09T11:35:16;99324.31;;;14.88;39.56
59531;BME280;45349;48.692;8.186;2023-04-09T11:37:44;99323.81;;;14.76;40.86
59531;BME280;45349;48.692;8.186;2023-04-09T11:40:15;99326.31;;;14.94;39.61
59531;BME280;45349;48.692;8.186;2023-04-09T11:42:42;99341.44;;;15.09;40.26
59531;BME280;45349;48.692;8.186;2023-04-09T11:45:10;99333.16;;;14.79;38.27
59531;BME280;45349;48.692;8.186;2023-04-09T11:47:38;99333.56;;;15.17;39.18
59531;BME280;45349;48.692;8.186;2023-04-09T11:50:08;99338.16;;;15.40;40.02
59531;BME280;45349;48.692;8.186;2023-04-09T11:52:37;99330.56;;;14.95;38.65
59531;BME280;45349;48.692;8.186;2023-04-09T11:55:07;99335.38;;;15.33;39.10
59531;BME280;45349;48.692;8.186;2023-04-09T11:57:41;99332.91;;;15.31;39.40
59531;BME280;45349;48.692;8.186;2023-04-09T12:00:11;99334.50;;;15.74;38.27
59531;BME280;45349;48.692;8.186;2023-04-09T12:02:40;99327.78;;;15.05;40.63
59531;BME280;45349;48.692;8.186;2023-04-09T12:05:11;99340.44;;;14.50;40.64
59531;BME280;45349;48.692;8.186;2023-04-09T12:07:39;99338.69;;;13.63;39.85
59531;BME280;45349;48.692;8.186;2023-04-09T12:10:10;99327.78;;;13.76;42.92
59531;BME280;45349;48.692;8.186;2023-04-09T12:12:42;99329.47;;;13.59;43.49
59531;BME280;45349;48.692;8.186;2023-04-09T12:15:18;99330.91;;;13.80;44.91
59531;BME280;45349;48.692;8.186;2023-04-09T12:17:47;99322.03;;;14.42;41.75
59531;BME280;45349;48.692;8.186;2023-04-09T12:20:26;99324.75;;;14.67;41.92
59531;BME280;45349;48.692;8.186;2023-04-09T12:22:54;99323.84;;;15.09;41.39
59531;BME280;45349;48.692;8.186;2023-04-09T12:25:21;99323.72;;;15.35;42.47
59531;BME280;45349;48.692;8.186;2023-04-09T12:27:47;99327.13;;;15.03;38.26
59531;BME280;45349;48.692;8.186;2023-04-09T12:30:14;99317.78;;;14.49;38.55
59531;BME280;45349;48.692;8.186;2023-04-09T12:32:41;99315.31;;;13.52;41.88
59531;BME280;45349;48.692;8.186;2023-04-09T12:35:09;99320.63;;;13.86;40.90
59531;BME280;45349;48.692;8.186;2023-04-09T12:37:35;99313.91;;;13.92;41.23
59531;BME280;45349;48.692;8.186;2023-04-09T12:40:04;99311.22;;;13.76;39.96
59531;BME280;45349;48.692;8.186;2023-04-09T12:42:31;99304.63;;;13.71;43.32
59531;BME280;45349;48.692;8.186;2023-04-09T12:44:57;99309.50;;;13.93;42.62
59531;BME280;45349;48.692;8.186;2023-04-09T12:47:24;99315.50;;;13.85;41.56
59531;BME280;45349;48.692;8.186;2023-04-09T12:49:52;99312.34;;;14.08;39.77
59531;BME280;45349;48.692;8.186;2023-04-09T12:52:19;99316.03;;;12.72;41.59
59531;BME280;45349;48.692;8.186;2023-04-09T12:54:46;99316.22;;;13.24;41.76
59531;BME280;45349;48.692;8.186;2023-04-09T12:57:14;99317.06;;;13.07;41.86
59531;BME280;45349;48.692;8.186;2023-04-09T12:59:41;99314.63;;;13.13;42.87
59531;BME280;45349;48.692;8.186;2023-04-09T13:02:08;99307.88;;;12.57;42.92
59531;BME280;45349;48.692;8.186;2023-04-09T13:04:34;99310.88;;;12.62;42.84
59531;BME280;45349;48.692;8.186;2023-04-09T13:07:01;99308.31;;;12.52;43.26
59531;BME280;45349;48.692;8.186;2023-04-09T13:09:27;99303.03;;;12.34;43.37
59531;BME280;45349;48.692;8.186;2023-04-09T13:11:54;99302.66;;;12.29;45.03
59531;BME280;45349;48.692;8.186;2023-04-09T13:14:25;99294.66;;;12.94;45.09